createdAt,value
2019-01-31T00:03:00.382Z,18.77
2019-01-31T00:08:17.344Z,18.73
2019-01-31T00:13:34.154Z,16.60
2019-01-31T00:18:51.147Z,15.67
2019-01-31T00:24:08.254Z,17.43
2019-01-31T00:29:25.546Z,15.77
2019-01-31T00:34:42.621Z,16.53
2019-01-31T00:39:59.693Z,15.77
2019-01-31T00:45:16.645Z,15.87
2019-01-31T00:50:33.471Z,15.47
2019-01-31T00:55:50.258Z,15.03
2019-01-31T01:01:07.786Z,15.27
2019-01-31T01:06:24.565Z,14.70
2019-01-31T01:11:41.691Z,13.00
2019-01-31T01:16:58.769Z,13.50
2019-01-31T01:22:15.538Z,13.93
2019-01-31T01:27:32.730Z,13.97
2019-01-31T01:32:49.922Z,14.73
2019-01-31T01:38:06.670Z,12.20
2019-01-31T01:43:23.655Z,14.27
2019-01-31T01:48:41.070Z,12.23
2019-01-31T01:53:58.265Z,12.53
2019-01-31T01:59:15.085Z,12.30
2019-01-31T02:04:32.213Z,13.80
2019-01-31T02:09:49.288Z,15.40
2019-01-31T02:15:06.125Z,13.03
2019-01-31T02:20:23.334Z,12.13
2019-01-31T02:25:40.282Z,10.30
2019-01-31T02:30:57.970Z,11.90
2019-01-31T02:36:15.060Z,12.30
2019-01-31T02:41:32.185Z,12.03
2019-01-31T02:46:49.378Z,13.03
2019-01-31T02:52:07.137Z,11.00
2019-01-31T02:57:24.144Z,10.93
2019-01-31T03:02:41.333Z,11.20
2019-01-31T03:07:58.775Z,11.37
2019-01-31T03:13:16.104Z,12.43
2019-01-31T03:18:33.842Z,11.47
2019-01-31T03:23:50.917Z,11.47
2019-01-31T03:29:08.141Z,10.73
2019-01-31T03:34:25.861Z,10.47
2019-01-31T03:39:43.189Z,10.13
2019-01-31T03:45:00.167Z,11.40
2019-01-31T03:50:17.393Z,11.43
2019-01-31T03:55:34.511Z,11.97
2019-01-31T04:00:51.472Z,11.13
2019-01-31T04:06:08.690Z,11.37
2019-01-31T04:11:25.649Z,11.07
2019-01-31T04:16:43.383Z,9.87
2019-01-31T04:22:00.422Z,11.23
2019-01-31T04:27:17.855Z,11.00
2019-01-31T04:32:34.987Z,12.63
2019-01-31T04:37:52.086Z,12.40
2019-01-31T04:43:09.830Z,11.07
2019-01-31T04:48:27.330Z,10.97
2019-01-31T04:53:44.942Z,10.53
2019-01-31T04:59:01.796Z,12.33
2019-01-31T05:04:19.029Z,11.40
2019-01-31T05:09:36.063Z,11.00
2019-01-31T05:14:53.015Z,11.33
2019-01-31T05:20:09.960Z,10.83
2019-01-31T05:25:27.006Z,10.17
2019-01-31T05:30:43.872Z,10.97
2019-01-31T05:36:01.542Z,12.27
2019-01-31T05:41:18.968Z,10.80
2019-01-31T05:46:36.012Z,10.87
2019-01-31T05:51:52.963Z,10.20
2019-01-31T05:57:10.272Z,10.80
2019-01-31T06:02:27.173Z,11.80
2019-01-31T06:07:44.589Z,10.60
2019-01-31T06:13:01.500Z,9.83
2019-01-31T06:18:18.546Z,10.47
2019-01-31T06:23:36.107Z,9.90
2019-01-31T06:28:53.433Z,10.30
2019-01-31T06:34:10.697Z,10.23
2019-01-31T06:39:27.855Z,11.00
2019-01-31T06:44:44.706Z,12.30
2019-01-31T06:50:02.680Z,11.77
2019-01-31T06:55:20.398Z,12.20
2019-01-31T07:00:37.186Z,11.17
2019-01-31T07:05:54.592Z,11.97
2019-01-31T07:11:11.685Z,12.03
2019-01-31T07:16:29.310Z,16.73
2019-01-31T07:21:46.070Z,16.10
2019-01-31T07:27:04.359Z,12.70
2019-01-31T07:37:59.706Z,11.20
2019-01-31T07:43:17.364Z,16.40
2019-01-31T07:48:35.007Z,12.40
2019-01-31T07:53:51.874Z,11.27
2019-01-31T07:58:57.907Z,16.10
2019-01-31T08:09:58.571Z,13.03
2019-01-31T08:15:15.693Z,13.00
2019-01-31T08:20:32.726Z,13.13
2019-01-31T08:25:49.750Z,12.40
2019-01-31T08:31:07.544Z,12.33
2019-01-31T08:36:24.598Z,12.70
2019-01-31T08:41:42.257Z,14.63
2019-01-31T08:46:59.305Z,13.73
2019-01-31T08:52:16.151Z,12.70
2019-01-31T08:57:33.022Z,14.93
2019-01-31T09:02:50.272Z,14.90
2019-01-31T09:08:07.731Z,16.23
2019-01-31T09:13:24.739Z,17.23
2019-01-31T09:18:41.627Z,16.17
2019-01-31T09:23:58.523Z,16.00
2019-01-31T09:29:16.130Z,15.70
2019-01-31T09:34:33.643Z,16.87
2019-01-31T09:39:51.150Z,17.83
2019-01-31T09:45:08.404Z,18.13
2019-01-31T09:50:28.094Z,17.33
2019-01-31T09:55:44.099Z,18.27
2019-01-31T10:01:01.124Z,15.37
2019-01-31T10:06:18.210Z,13.67
2019-01-31T10:11:35.449Z,11.13
2019-01-31T10:16:52.583Z,11.40
2019-01-31T10:22:10.034Z,7.00
2019-01-31T10:27:27.227Z,7.60
2019-01-31T10:32:43.976Z,7.43
2019-01-31T10:38:00.938Z,6.53
2019-01-31T10:43:17.806Z,7.60
2019-01-31T10:48:34.884Z,6.40
2019-01-31T10:53:52.052Z,6.30
2019-01-31T10:59:08.832Z,5.57
2019-01-31T11:04:26.502Z,5.43
2019-01-31T11:09:43.372Z,6.47
2019-01-31T11:15:00.391Z,5.73
2019-01-31T11:20:17.209Z,6.17
2019-01-31T11:25:34.505Z,5.17
2019-01-31T11:30:51.573Z,4.87
2019-01-31T11:36:08.861Z,5.77
2019-01-31T11:41:26.272Z,6.37
2019-01-31T11:46:43.317Z,6.67
2019-01-31T11:52:00.071Z,6.57
2019-01-31T11:57:17.703Z,6.13
2019-01-31T12:02:34.686Z,7.03
2019-01-31T12:07:51.738Z,7.10
2019-01-31T12:13:09.104Z,7.20
2019-01-31T12:18:26.059Z,5.63
2019-01-31T12:23:43.254Z,6.87
2019-01-31T12:29:00.684Z,8.73
2019-01-31T12:34:17.514Z,8.47
2019-01-31T12:39:35.130Z,8.20
2019-01-31T12:44:52.477Z,8.83
2019-01-31T12:50:09.585Z,9.93
2019-01-31T12:55:26.814Z,8.63
2019-01-31T13:00:43.636Z,10.50
2019-01-31T13:06:00.702Z,10.43
2019-01-31T13:11:17.619Z,8.67
2019-01-31T13:16:35.276Z,8.60
2019-01-31T13:21:52.486Z,8.23
2019-01-31T13:27:09.871Z,8.67
2019-01-31T13:32:26.799Z,7.97
2019-01-31T13:37:44.288Z,6.97
2019-01-31T13:43:01.442Z,8.23
2019-01-31T13:48:18.347Z,6.93
2019-01-31T13:53:35.434Z,7.80
2019-01-31T13:58:52.683Z,6.97
2019-01-31T14:04:09.614Z,6.80
2019-01-31T14:09:27.006Z,7.83
2019-01-31T14:14:44.546Z,7.77
2019-01-31T14:20:01.523Z,7.90
2019-01-31T14:25:18.287Z,6.13
2019-01-31T14:30:35.541Z,6.47
2019-01-31T14:35:52.342Z,5.73
2019-01-31T14:41:09.864Z,4.33
2019-01-31T14:46:27.724Z,2.70
2019-01-31T14:51:44.939Z,4.00
2019-01-31T14:57:03.159Z,3.93
2019-01-31T15:02:21.106Z,3.23
2019-01-31T15:07:37.959Z,3.67
2019-01-31T15:13:00.366Z,2.80
2019-01-31T15:18:17.510Z,3.47
2019-01-31T15:23:35.357Z,2.37
2019-01-31T15:28:52.414Z,3.53
2019-01-31T15:34:09.763Z,3.77
2019-01-31T15:39:26.895Z,2.70
2019-01-31T15:44:44.297Z,3.60
2019-01-31T15:50:01.441Z,3.93
2019-01-31T15:55:18.347Z,3.50
2019-01-31T16:00:37.492Z,3.77
2019-01-31T16:05:55.223Z,4.40
2019-01-31T16:11:12.050Z,4.27
2019-01-31T16:16:29.134Z,4.07
2019-01-31T16:21:46.420Z,4.33
2019-01-31T16:27:03.315Z,5.37
2019-01-31T16:32:20.724Z,7.12
2019-01-31T16:37:37.661Z,5.73
2019-01-31T16:42:54.576Z,5.37
2019-01-31T16:48:12.602Z,5.13
2019-01-31T16:53:29.720Z,5.90
2019-01-31T16:58:46.884Z,5.70
2019-01-31T17:04:04.937Z,6.07
2019-01-31T17:09:22.078Z,5.57
2019-01-31T17:14:39.199Z,6.80
2019-01-31T17:19:56.747Z,7.43
2019-01-31T17:25:13.763Z,7.37
2019-01-31T17:30:30.900Z,9.17
2019-01-31T17:35:47.723Z,8.43
2019-01-31T17:41:05.549Z,7.50
2019-01-31T17:46:22.716Z,6.63
2019-01-31T17:51:39.651Z,8.10
2019-01-31T17:56:57.623Z,10.60
2019-01-31T18:02:15.482Z,7.97
2019-01-31T18:08:00.540Z,8.43
2019-01-31T18:19:14.018Z,8.77
2019-01-31T18:24:31.484Z,8.27
2019-01-31T18:29:48.915Z,10.43
2019-01-31T18:35:06.117Z,9.13
2019-01-31T18:40:23.549Z,9.77
2019-01-31T18:45:52.463Z,4.67
2019-01-31T18:51:00.086Z,12.23
2019-01-31T18:56:17.374Z,12.75
2019-01-31T19:01:34.906Z,9.77
2019-01-31T19:06:52.301Z,9.20
2019-01-31T19:12:09.482Z,14.70
2019-01-31T19:17:26.917Z,14.80
2019-01-31T19:22:43.973Z,12.30
2019-01-31T19:28:01.595Z,18.73
2019-01-31T19:33:18.437Z,17.80
2019-01-31T19:38:35.323Z,19.62
2019-01-31T19:43:52.257Z,16.67
2019-01-31T19:49:09.459Z,14.40
2019-01-31T19:54:26.466Z,16.47
2019-01-31T19:59:43.547Z,16.20
2019-01-31T20:05:00.646Z,19.80
2019-01-31T20:10:17.915Z,21.35
2019-01-31T20:15:35.581Z,16.83
2019-01-31T20:20:52.723Z,14.27
2019-01-31T20:26:09.561Z,13.73
2019-01-31T20:31:26.933Z,13.70
2019-01-31T20:36:43.954Z,13.80
2019-01-31T20:42:01.196Z,13.37
2019-01-31T20:47:18.324Z,13.87
2019-01-31T20:52:35.441Z,14.13
2019-01-31T20:57:52.540Z,13.30
2019-01-31T21:03:09.514Z,14.10
2019-01-31T21:08:26.705Z,13.27
2019-01-31T21:13:44.345Z,14.47
2019-01-31T21:19:01.343Z,16.30
2019-01-31T21:24:18.821Z,14.23
2019-01-31T21:29:35.821Z,10.43
2019-01-31T21:34:53.147Z,13.03
2019-01-31T21:45:34.694Z,12.80
2019-01-31T21:51:12.127Z,14.40
2019-01-31T21:56:29.157Z,11.97
2019-01-31T22:01:48.086Z,12.57
2019-01-31T22:07:05.587Z,14.57
2019-01-31T22:12:22.420Z,13.03
2019-01-31T22:17:40.642Z,12.53
2019-01-31T22:22:58.568Z,9.33
2019-01-31T22:28:15.908Z,10.87
2019-01-31T22:33:33.502Z,9.90
2019-01-31T22:38:50.940Z,10.50
2019-01-31T22:44:08.119Z,10.83
2019-01-31T22:49:25.397Z,7.70
2019-01-31T22:54:42.230Z,11.27
2019-01-31T22:59:59.590Z,11.27
2019-01-31T23:05:16.717Z,10.33
2019-01-31T23:10:33.884Z,12.87
2019-01-31T23:15:51.210Z,12.47
2019-01-31T23:21:08.094Z,12.70
2019-01-31T23:26:25.345Z,13.33
2019-01-31T23:31:42.463Z,12.70
2019-01-31T23:36:59.316Z,14.73
2019-01-31T23:42:16.794Z,14.87
2019-01-31T23:47:33.819Z,16.80
2019-01-31T23:52:50.700Z,15.90
2019-01-31T23:58:07.859Z,16.23
